sensor_id;sensor_type;location;lat;lon;timestamp;pressure;altitude;pressure_sealevel;temperature;humidity
4570;BME280;2297;51.442;6.996;2022-12-29T00:00:07;98981.66;;;10.01;67.40
4570;BME280;2297;51.442;6.996;2022-12-29T00:02:35;98991.97;;;10.07;66.96
4570;BME280;2297;51.442;6.996;2022-12-29T00:05:02;98983.97;;;9.87;67.58
4570;BME280;2297;51.442;6.996;2022-12-29T00:07:29;98980.56;;;9.83;67.51
4570;BME280;2297;51.442;6.996;2022-12-29T00:09:55;98968.91;;;9.89;67.53
4570;BME280;2297;51.442;6.996;2022-12-29T00:12:22;98961.00;;;9.89;67.88
4570;BME280;2297;51.442;6.996;2022-12-29T00:14:51;98965.03;;;9.75;68.87
4570;BME280;2297;51.442;6.996;2022-12-29T00:17:37;98956.53;;;9.91;68.63
4570;BME280;2297;51.442;6.996;2022-12-29T00:20:04;98954.94;;;10.10;68.13
4570;BME280;2297;51.442;6.996;2022-12-29T00:22:48;98955.97;;;9.60;69.72
4570;BME280;2297;51.442;6.996;2022-12-29T00:25:32;98961.34;;;9.57;70.20
4570;BME280;2297;51.442;6.996;2022-12-29T00:28:16;98960.88;;;9.46;71.11
4570;BME280;2297;51.442;6.996;2022-12-29T00:31:00;98951.09;;;9.50;71.21
4570;BME280;2297;51.442;6.996;2022-12-29T00:33:45;98950.63;;;9.62;70.36
4570;BME280;2297;51.442;6.996;2022-12-29T00:36:30;98937.94;;;9.50;70.47
4570;BME280;2297;51.442;6.996;2022-12-29T00:39:00;98940.75;;;9.67;70.07
4570;BME280;2297;51.442;6.996;2022-12-29T00:41:45;98941.19;;;9.56;70.47
4570;BME280;2297;51.442;6.996;2022-12-29T00:44:29;98926.94;;;9.84;69.74
4570;BME280;2297;51.442;6.996;2022-12-29T00:46:56;98926.84;;;9.86;69.85
4570;BME280;2297;51.442;6.996;2022-12-29T00:49:29;98923.47;;;9.60;70.58
4570;BME280;2297;51.442;6.996;2022-12-29T00:51:59;98933.03;;;9.85;69.52
4570;BME280;2297;51.442;6.996;2022-12-29T00:54:26;98931.75;;;9.27;72.49
4570;BME280;2297;51.442;6.996;2022-12-29T00:56:53;98926.63;;;9.46;72.06
4570;BME280;2297;51.442;6.996;2022-12-29T00:59:20;98928.50;;;9.44;72.16
4570;BME280;2297;51.442;6.996;2022-12-29T01:01:47;98916.50;;;9.81;71.23
4570;BME280;2297;51.442;6.996;2022-12-29T01:04:14;98919.31;;;9.76;71.02
4570;BME280;2297;51.442;6.996;2022-12-29T01:06:42;98917.03;;;9.67;71.32
4570;BME280;2297;51.442;6.996;2022-12-29T01:09:09;98914.34;;;9.91;70.34
4570;BME280;2297;51.442;6.996;2022-12-29T01:11:53;98912.44;;;9.72;70.53
4570;BME280;2297;51.442;6.996;2022-12-29T01:14:20;98901.72;;;9.55;70.96
4570;BME280;2297;51.442;6.996;2022-12-29T01:16:47;98918.34;;;9.79;69.79
4570;BME280;2297;51.442;6.996;2022-12-29T01:19:15;98920.06;;;9.80;69.33
4570;BME280;2297;51.442;6.996;2022-12-29T01:21:43;98915.38;;;9.64;69.93
4570;BME280;2297;51.442;6.996;2022-12-29T01:24:10;98917.34;;;9.81;68.85
4570;BME280;2297;51.442;6.996;2022-12-29T01:26:36;98928.44;;;9.90;68.86
4570;BME280;2297;51.442;6.996;2022-12-29T01:29:03;98918.38;;;10.01;68.47
4570;BME280;2297;51.442;6.996;2022-12-29T01:31:29;98927.81;;;10.07;68.19
4570;BME280;2297;51.442;6.996;2022-12-29T01:33:56;98914.44;;;10.11;67.81
4570;BME280;2297;51.442;6.996;2022-12-29T01:36:23;98912.13;;;10.04;67.62
4570;BME280;2297;51.442;6.996;2022-12-29T01:38:52;98899.22;;;9.96;68.26
4570;BME280;2297;51.442;6.996;2022-12-29T01:41:19;98900.81;;;10.00;68.15
4570;BME280;2297;51.442;6.996;2022-12-29T01:43:47;98892.91;;;10.00;68.25
4570;BME280;2297;51.442;6.996;2022-12-29T01:46:23;98886.22;;;9.69;69.04
4570;BME280;2297;51.442;6.996;2022-12-29T01:48:53;98887.38;;;9.84;68.48
4570;BME280;2297;51.442;6.996;2022-12-29T01:51:23;98884.47;;;10.12;67.40
4570;BME280;2297;51.442;6.996;2022-12-29T01:53:53;98898.91;;;9.81;68.48
4570;BME280;2297;51.442;6.996;2022-12-29T01:56:22;98900.22;;;9.93;67.77
4570;BME280;2297;51.442;6.996;2022-12-29T01:58:52;98906.94;;;10.01;66.97
4570;BME280;2297;51.442;6.996;2022-12-29T02:01:22;98896.50;;;10.20;66.30
4570;BME280;2297;51.442;6.996;2022-12-29T02:03:49;98885.81;;;10.23;66.12
4570;BME280;2297;51.442;6.996;2022-12-29T02:06:19;98885.81;;;10.23;65.53
4570;BME280;2297;51.442;6.996;2022-12-29T02:08:50;98868.22;;;10.44;65.04
4570;BME280;2297;51.442;6.996;2022-12-29T02:11:19;98867.88;;;10.31;64.35
4570;BME280;2297;51.442;6.996;2022-12-29T02:13:46;98894.31;;;10.29;64.63
4570;BME280;2297;51.442;6.996;2022-12-29T02:16:23;98884.03;;;10.44;64.04
4570;BME280;2297;51.442;6.996;2022-12-29T02:19:06;98888.72;;;10.37;64.03
4570;BME280;2297;51.442;6.996;2022-12-29T02:21:51;98875.53;;;10.37;63.89
4570;BME280;2297;51.442;6.996;2022-12-29T02:24:43;98882.81;;;10.53;63.33
4570;BME280;2297;51.442;6.996;2022-12-29T02:27:33;98881.88;;;10.33;63.34
4570;BME280;2297;51.442;6.996;2022-12-29T02:30:08;98872.25;;;10.53;62.96
4570;BME280;2297;51.442;6.996;2022-12-29T02:32:46;98873.34;;;10.47;62.41
4570;BME280;2297;51.442;6.996;2022-12-29T02:35:23;98873.09;;;10.53;62.43
4570;BME280;2297;51.442;6.996;2022-12-29T02:37:52;98872.25;;;10.53;61.60
4570;BME280;2297;51.442;6.996;2022-12-29T02:40:25;98869.19;;;10.41;61.89
4570;BME280;2297;51.442;6.996;2022-12-29T02:43:01;98855.09;;;10.42;61.50
4570;BME280;2297;51.442;6.996;2022-12-29T02:45:32;98844.50;;;10.63;60.80
4570;BME280;2297;51.442;6.996;2022-12-29T02:48:06;98855.59;;;10.71;60.09
4570;BME280;2297;51.442;6.996;2022-12-29T02:50:37;98855.09;;;10.42;60.46
4570;BME280;2297;51.442;6.996;2022-12-29T02:53:07;98860.56;;;10.58;60.31
4570;BME280;2297;51.442;6.996;2022-12-29T02:55:36;98845.19;;;10.27;60.10
4570;BME280;2297;51.442;6.996;2022-12-29T02:58:15;98854.03;;;10.86;59.23
4570;BME280;2297;51.442;6.996;2022-12-29T03:00:51;98850.41;;;10.89;58.86
4570;BME280;2297;51.442;6.996;2022-12-29T03:03:29;98844.72;;;10.58;59.55
4570;BME280;2297;51.442;6.996;2022-12-29T03:06:17;98856.09;;;10.79;59.31
4570;BME280;2297;51.442;6.996;2022-12-29T03:08:51;98842.16;;;10.57;60.61
4570;BME280;2297;51.442;6.996;2022-12-29T03:11:19;98835.34;;;10.91;59.43
4570;BME280;2297;51.442;6.996;2022-12-29T03:14:08;98840.75;;;10.88;59.08
4570;BME280;2297;51.442;6.996;2022-12-29T03:16:59;98862.75;;;10.88;58.91
4570;BME280;2297;51.442;6.996;2022-12-29T03:19:35;98846.44;;;10.59;59.13
4570;BME280;2297;51.442;6.996;2022-12-29T03:22:04;98836.31;;;10.69;59.39
4570;BME280;2297;51.442;6.996;2022-12-29T03:24:51;98834.41;;;11.12;57.95
4570;BME280;2297;51.442;6.996;2022-12-29T03:27:22;98837.84;;;10.94;58.29
4570;BME280;2297;51.442;6.996;2022-12-29T03:29:53;98847.78;;;10.89;58.72
4570;BME280;2297;51.442;6.996;2022-12-29T03:32:23;98821.94;;;11.14;58.12
4570;BME280;2297;51.442;6.996;2022-12-29T03:34:53;98819.88;;;11.21;57.76
4570;BME280;2297;51.442;6.996;2022-12-29T03:37:24;98822.78;;;10.96;58.52
4570;BME280;2297;51.442;6.996;2022-12-29T03:39:52;98810.09;;;11.04;58.31
4570;BME280;2297;51.442;6.996;2022-12-29T03:42:22;98811.25;;;11.18;57.97
4570;BME280;2297;51.442;6.996;2022-12-29T03:44:53;98835.81;;;10.40;60.91
4570;BME280;2297;51.442;6.996;2022-12-29T03:47:20;98826.78;;;10.86;59.94
4570;BME280;2297;51.442;6.996;2022-12-29T03:49:47;98808.31;;;10.86;60.39
4570;BME280;2297;51.442;6.996;2022-12-29T03:52:16;98815.09;;;11.10;59.25
4570;BME280;2297;51.442;6.996;2022-12-29T03:54:42;98812.38;;;11.12;59.42
4570;BME280;2297;51.442;6.996;2022-12-29T03:57:10;98804.91;;;10.63;60.75
4570;BME280;2297;51.442;6.996;2022-12-29T03:59:36;98792.31;;;10.89;60.70
4570;BME280;2297;51.442;6.996;2022-12-29T04:02:03;98802.78;;;10.71;60.50
4570;BME280;2297;51.442;6.996;2022-12-29T04:04:30;98800.19;;;10.51;61.08
4570;BME280;2297;51.442;6.996;2022-12-29T04:06:56;98774.66;;;10.70;60.42
4570;BME280;2297;51.442;6.996;2022-12-29T04:09:24;98779.88;;;10.91;60.00
4570;BME280;2297;51.442;6.996;2022-12-29T04:11:51;98771.38;;;10.84;60.09
4570;BME280;2297;51.442;6.996;2022-12-29T04:14:17;98767.25;;;10.78;59.95
4570;BME280;2297;51.442;6.996;2022-12-29T04:16:44;98767.41;;;11.13;59.36
4570;BME280;2297;51.442;6.996;2022-12-29T04:19:11;98765.25;;;10.84;59.59
4570;BME280;2297;51.442;6.996;2022-12-29T04:21:37;98759.75;;;11.07;59.12
4570;BME280;2297;51.442;6.996;2022-12-29T04:24:04;98766.94;;;11.23;58.41
4570;BME280;2297;51.442;6.996;2022-12-29T04:26:33;98779.19;;;10.87;59.38
4570;BME280;2297;51.442;6.996;2022-12-29T04:29:00;98751.63;;;10.93;58.93
4570;BME280;2297;51.442;6.996;2022-12-29T04:31:26;98770.38;;;11.06;58.91
4570;BME280;2297;51.442;6.996;2022-12-29T04:33:53;98760.09;;;11.19;58.06
4570;BME280;2297;51.442;6.996;2022-12-29T04:36:22;98775.88;;;11.39;57.48
4570;BME280;2297;51.442;6.996;2022-12-29T04:38:49;98779.69;;;11.14;58.33
4570;BME280;2297;51.442;6.996;2022-12-29T04:41:15;98771.81;;;11.13;58.45
4570;BME280;2297;51.442;6.996;2022-12-29T04:43:43;98757.97;;;11.27;57.30
4570;BME280;2297;51.442;6.996;2022-12-29T04:46:10;98758.72;;;11.29;57.21
4570;BME280;2297;51.442;6.996;2022-12-29T04:48:36;98757.53;;;10.98;58.17
4570;BME280;2297;51.442;6.996;2022-12-29T04:51:03;98774.78;;;11.05;57.64
4570;BME280;2297;51.442;6.996;2022-12-29T04:53:30;98769.31;;;11.10;57.29
4570;BME280;2297;51.442;6.996;2022-12-29T04:55:56;98788.09;;;11.23;56.84
4570;BME280;2297;51.442;6.996;2022-12-29T04:58:23;98777.94;;;11.33;56.46
4570;BME280;2297;51.442;6.996;2022-12-29T05:00:51;98780.44;;;11.36;56.09
4570;BME280;2297;51.442;6.996;2022-12-29T05:03:18;98806.81;;;10.99;56.86
4570;BME280;2297;51.442;6.996;2022-12-29T05:05:45;98772.81;;;11.29;56.05
4570;BME280;2297;51.442;6.996;2022-12-29T05:08:11;98780.88;;;11.26;55.99
4570;BME280;2297;51.442;6.996;2022-12-29T05:10:38;98778.06;;;11.48;55.79
4570;BME280;2297;51.442;6.996;2022-12-29T05:13:04;98776.94;;;11.35;55.59
4570;BME280;2297;51.442;6.996;2022-12-29T05:15:31;98780.88;;;11.26;56.06
4570;BME280;2297;51.442;6.996;2022-12-29T05:17:59;98798.97;;;11.17;56.30
4570;BME280;2297;51.442;6.996;2022-12-29T05:20:26;98795.22;;;11.40;55.59
4570;BME280;2297;51.442;6.996;2022-12-29T05:22:52;98820.81;;;11.39;55.34
4570;BME280;2297;51.442;6.996;2022-12-29T05:25:19;98810.63;;;11.12;56.07
4570;BME280;2297;51.442;6.996;2022-12-29T05:27:45;98797.41;;;11.12;56.02
4570;BME280;2297;51.442;6.996;2022-12-29T05:30:12;98829.38;;;11.44;55.22
4570;BME280;2297;51.442;6.996;2022-12-29T05:32:39;98826.44;;;11.31;55.31
4570;BME280;2297;51.442;6.996;2022-12-29T05:35:08;98830.72;;;11.34;55.08
4570;BME280;2297;51.442;6.996;2022-12-29T05:37:35;98817.03;;;11.26;54.72
4570;BME280;2297;51.442;6.996;2022-12-29T05:40:01;98834.22;;;11.54;54.12
4570;BME280;2297;51.442;6.996;2022-12-29T05:42:28;98834.28;;;11.52;54.65
4570;BME280;2297;51.442;6.996;2022-12-29T05:44:55;98858.25;;;11.11;56.80
4570;BME280;2297;51.442;6.996;2022-12-29T05:47:21;98831.44;;;11.19;58.14
4570;BME280;2297;51.442;6.996;2022-12-29T05:49:48;98825.09;;;11.42;57.90
4570;BME280;2297;51.442;6.996;2022-12-29T05:52:16;98839.06;;;11.44;58.17
4570;BME280;2297;51.442;6.996;2022-12-29T05:54:43;98823.53;;;11.38;59.13
4570;BME280;2297;51.442;6.996;2022-12-29T05:57:09;98838.50;;;11.37;59.40
4570;BME280;2297;51.442;6.996;2022-12-29T05:59:36;98833.78;;;11.63;58.82
4570;BME280;2297;51.442;6.996;2022-12-29T06:02:02;98843.94;;;11.34;59.27
4570;BME280;2297;51.442;6.996;2022-12-29T06:04:29;98843.34;;;11.66;58.70
4570;BME280;2297;51.442;6.996;2022-12-29T06:06:56;98850.09;;;11.71;58.58
4570;BME280;2297;51.442;6.996;2022-12-29T06:09:24;98847.31;;;11.74;58.39
4570;BME280;2297;51.442;6.996;2022-12-29T06:11:50;98861.78;;;11.67;58.39
4570;BME280;2297;51.442;6.996;2022-12-29T06:14:17;98860.41;;;11.58;58.18
4570;BME280;2297;51.442;6.996;2022-12-29T06:16:44;98880.78;;;11.37;57.97
4570;BME280;2297;51.442;6.996;2022-12-29T06:19:10;98865.25;;;11.31;58.43
4570;BME280;2297;51.442;6.996;2022-12-29T06:21:37;98865.66;;;11.41;57.82
4570;BME280;2297;51.442;6.996;2022-12-29T06:24:04;98859.84;;;11.52;57.52
4570;BME280;2297;51.442;6.996;2022-12-29T06:26:32;98860.78;;;11.51;57.67
4570;BME280;2297;51.442;6.996;2022-12-29T06:28:59;98870.50;;;11.50;57.52
4570;BME280;2297;51.442;6.996;2022-12-29T06:31:25;98872.63;;;11.61;56.91
4570;BME280;2297;51.442;6.996;2022-12-29T06:33:52;98878.09;;;11.58;56.98
4570;BME280;2297;51.442;6.996;2022-12-29T06:36:19;98882.25;;;11.44;56.98
4570;BME280;2297;51.442;6.996;2022-12-29T06:38:45;98887.38;;;11.47;56.71
4570;BME280;2297;51.442;6.996;2022-12-29T06:41:12;98892.38;;;11.16;56.73
4570;BME280;2297;51.442;6.996;2022-12-29T06:43:40;98890.53;;;11.18;55.93
4570;BME280;2297;51.442;6.996;2022-12-29T06:46:06;98896.94;;;11.12;55.83
4570;BME280;2297;51.442;6.996;2022-12-29T06:48:33;98904.69;;;11.55;55.13
4570;BME280;2297;51.442;6.996;2022-12-29T06:51:00;98904.88;;;11.31;55.12
4570;BME280;2297;51.442;6.996;2022-12-29T06:53:27;98898.97;;;11.26;55.29
4570;BME280;2297;51.442;6.996;2022-12-29T06:55:53;98901.66;;;11.43;54.92
4570;BME280;2297;51.442;6.996;2022-12-29T06:58:21;98905.31;;;11.22;55.17
4570;BME280;2297;51.442;6.996;2022-12-29T07:00:50;98909.41;;;11.08;55.75
4570;BME280;2297;51.442;6.996;2022-12-29T07:03:16;98905.66;;;11.33;55.02
4570;BME280;2297;51.442;6.996;2022-12-29T07:05:43;98911.88;;;11.32;55.23
4570;BME280;2297;51.442;6.996;2022-12-29T07:08:10;98904.59;;;11.37;54.81
4570;BME280;2297;51.442;6.996;2022-12-29T07:10:36;98907.50;;;11.12;54.90
4570;BME280;2297;51.442;6.996;2022-12-29T07:13:03;98906.72;;;11.29;54.24
4570;BME280;2297;51.442;6.996;2022-12-29T07:15:30;98918.94;;;10.92;54.69
4570;BME280;2297;51.442;6.996;2022-12-29T07:17:58;98900.75;;;11.05;54.54
4570;BME280;2297;51.442;6.996;2022-12-29T07:20:24;98911.31;;;11.05;54.74
4570;BME280;2297;51.442;6.996;2022-12-29T07:22:51;98908.47;;;11.09;54.10
4570;BME280;2297;51.442;6.996;2022-12-29T07:25:17;98917.94;;;11.15;53.88
4570;BME280;2297;51.442;6.996;2022-12-29T07:27:44;98920.22;;;11.23;53.90
4570;BME280;2297;51.442;6.996;2022-12-29T07:30:12;98912.47;;;10.99;54.23
4570;BME280;2297;51.442;6.996;2022-12-29T07:32:38;98916.81;;;11.21;53.89
4570;BME280;2297;51.442;6.996;2022-12-29T07:35:07;98914.22;;;11.38;53.66
4570;BME280;2297;51.442;6.996;2022-12-29T07:37:34;98927.50;;;11.56;53.29
4570;BME280;2297;51.442;6.996;2022-12-29T07:40:00;98931.75;;;11.22;53.33
4570;BME280;2297;51.442;6.996;2022-12-29T07:42:28;98936.69;;;11.29;52.89
4570;BME280;2297;51.442;6.996;2022-12-29T07:44:55;98954.94;;;11.15;52.91
4570;BME280;2297;51.442;6.996;2022-12-29T07:47:21;98951.03;;;11.03;52.30
4570;BME280;2297;51.442;6.996;2022-12-29T07:49:48;98961.19;;;10.92;51.78
4570;BME280;2297;51.442;6.996;2022-12-29T07:52:16;98960.53;;;10.87;51.51
4570;BME280;2297;51.442;6.996;2022-12-29T07:54:43;98964.69;;;11.34;51.36
4570;BME280;2297;51.442;6.996;2022-12-29T07:57:09;98972.22;;;11.41;50.85
4570;BME280;2297;51.442;6.996;2022-12-29T07:59:36;98975.88;;;10.99;51.94
4570;BME280;2297;51.442;6.996;2022-12-29T08:02:02;98979.97;;;11.27;51.50
4570;BME280;2297;51.442;6.996;2022-12-29T08:04:29;98983.44;;;11.27;51.41
4570;BME280;2297;51.442;6.996;2022-12-29T08:06:56;98978.34;;;11.23;51.46
4570;BME280;2297;51.442;6.996;2022-12-29T08:09:24;98970.72;;;11.17;51.80
4570;BME280;2297;51.442;6.996;2022-12-29T08:11:51;98970.41;;;11.43;50.95
4570;BME280;2297;51.442;6.996;2022-12-29T08:14:18;98980.13;;;11.43;50.39
4570;BME280;2297;51.442;6.996;2022-12-29T08:16:45;98987.72;;;11.09;51.36
4570;BME280;2297;51.442;6.996;2022-12-29T08:19:13;98976.63;;;11.01;51.41
4570;BME280;2297;51.442;6.996;2022-12-29T08:21:39;98978.91;;;11.10;51.64
4570;BME280;2297;51.442;6.996;2022-12-29T08:24:07;98982.44;;;11.09;51.23
4570;BME280;2297;51.442;6.996;2022-12-29T08:26:35;98995.34;;;11.17;50.99
4570;BME280;2297;51.442;6.996;2022-12-29T08:29:02;99000.44;;;11.22;50.66
4570;BME280;2297;51.442;6.996;2022-12-29T08:31:29;99001.50;;;11.18;50.43
4570;BME280;2297;51.442;6.996;2022-12-29T08:33:55;99001.63;;;11.14;50.66
4570;BME280;2297;51.442;6.996;2022-12-29T08:36:22;98995.53;;;11.33;50.08
4570;BME280;2297;51.442;6.996;2022-12-29T08:38:48;98992.63;;;11.19;50.48
4570;BME280;2297;51.442;6.996;2022-12-29T08:41:15;99006.03;;;11.35;50.61
4570;BME280;2297;51.442;6.996;2022-12-29T08:43:46;99012.56;;;11.05;50.86
4570;BME280;2297;51.442;6.996;2022-12-29T08:46:13;99006.50;;;11.24;50.95
4570;BME280;2297;51.442;6.996;2022-12-29T08:48:39;99029.63;;;10.98;51.49
4570;BME280;2297;51.442;6.996;2022-12-29T08:51:06;99033.81;;;10.61;52.44
4570;BME280;2297;51.442;6.996;2022-12-29T08:53:33;99032.41;;;10.95;52.41
4570;BME280;2297;51.442;6.996;2022-12-29T08:56:01;99018.00;;;11.02;52.63
4570;BME280;2297;51.442;6.996;2022-12-29T08:58:28;99028.56;;;11.02;52.54
4570;BME280;2297;51.442;6.996;2022-12-29T09:00:57;99015.63;;;11.17;51.04
4570;BME280;2297;51.442;6.996;2022-12-29T09:03:24;99022.09;;;10.89;51.42
4570;BME280;2297;51.442;6.996;2022-12-29T09:05:52;99024.19;;;10.80;51.86
4570;BME280;2297;51.442;6.996;2022-12-29T09:08:20;99051.75;;;10.53;51.95
4570;BME280;2297;51.442;6.996;2022-12-29T09:10:47;99025.75;;;10.64;51.73
4570;BME280;2297;51.442;6.996;2022-12-29T09:13:14;99033.03;;;10.79;51.82
4570;BME280;2297;51.442;6.996;2022-12-29T09:15:41;99029.53;;;11.00;51.38
4570;BME280;2297;51.442;6.996;2022-12-29T09:18:10;99018.31;;;10.74;51.86
4570;BME280;2297;51.442;6.996;2022-12-29T09:20:37;99030.53;;;10.97;51.28
4570;BME280;2297;51.442;6.996;2022-12-29T09:23:04;99041.88;;;10.78;51.47
4570;BME280;2297;51.442;6.996;2022-12-29T09:25:32;99056.41;;;10.89;51.62
4570;BME280;2297;51.442;6.996;2022-12-29T09:27:59;99052.69;;;10.72;51.90
4570;BME280;2297;51.442;6.996;2022-12-29T09:30:28;99035.44;;;10.86;51.17
4570;BME280;2297;51.442;6.996;2022-12-29T09:32:54;99032.81;;;10.63;51.82
4570;BME280;2297;51.442;6.996;2022-12-29T09:35:22;99039.50;;;10.93;51.12
4570;BME280;2297;51.442;6.996;2022-12-29T09:37:49;99062.41;;;10.72;51.29
4570;BME280;2297;51.442;6.996;2022-12-29T09:40:24;99047.69;;;10.87;50.87
4570;BME280;2297;51.442;6.996;2022-12-29T09:43:05;99047.19;;;10.99;50.77
4570;BME280;2297;51.442;6.996;2022-12-29T09:45:41;99051.47;;;10.59;51.20
4570;BME280;2297;51.442;6.996;2022-12-29T09:48:15;99045.47;;;10.98;50.53
4570;BME280;2297;51.442;6.996;2022-12-29T09:50:48;99049.69;;;11.02;50.37
4570;BME280;2297;51.442;6.996;2022-12-29T09:53:20;99037.78;;;10.92;50.27
4570;BME280;2297;51.442;6.996;2022-12-29T09:55:51;99077.78;;;10.62;50.49
4570;BME280;2297;51.442;6.996;2022-12-29T09:58:24;99056.03;;;10.55;50.04
4570;BME280;2297;51.442;6.996;2022-12-29T10:00:59;99066.91;;;10.90;49.51
4570;BME280;2297;51.442;6.996;2022-12-29T10:03:35;99036.63;;;10.56;50.16
4570;BME280;2297;51.442;6.996;2022-12-29T10:06:09;99048.06;;;10.77;49.29
4570;BME280;2297;51.442;6.996;2022-12-29T10:08:41;99054.53;;;10.92;48.64
4570;BME280;2297;51.442;6.996;2022-12-29T10:11:20;99062.88;;;10.81;48.98
4570;BME280;2297;51.442;6.996;2022-12-29T10:14:01;99063.59;;;10.64;49.19
4570;BME280;2297;51.442;6.996;2022-12-29T10:16:32;99059.59;;;10.76;48.72
4570;BME280;2297;51.442;6.996;2022-12-29T10:19:24;99057.09;;;10.94;48.37
4570;BME280;2297;51.442;6.996;2022-12-29T10:22:20;99064.28;;;10.47;48.89
4570;BME280;2297;51.442;6.996;2022-12-29T10:24:55;99056.78;;;11.02;48.26
4570;BME280;2297;51.442;6.996;2022-12-29T10:27:22;99055.38;;;10.93;47.89
4570;BME280;2297;51.442;6.996;2022-12-29T10:29:54;99056.00;;;10.77;47.78
4570;BME280;2297;51.442;6.996;2022-12-29T10:32:26;99054.84;;;11.05;47.22
4570;BME280;2297;51.442;6.996;2022-12-29T10:34:58;99075.53;;;10.73;47.36
4570;BME280;2297;51.442;6.996;2022-12-29T10:37:34;99057.94;;;10.74;47.58
4570;BME280;2297;51.442;6.996;2022-12-29T10:40:15;99068.16;;;10.81;47.05
4570;BME280;2297;51.442;6.996;2022-12-29T10:42:46;99090.91;;;10.86;46.90
4570;BME280;2297;51.442;6.996;2022-12-29T10:45:18;99070.19;;;10.75;46.75
4570;BME280;2297;51.442;6.996;2022-12-29T10:47:52;99099.50;;;10.69;46.75
4570;BME280;2297;51.442;6.996;2022-12-29T10:50:20;99075.91;;;10.86;46.77
4570;BME280;2297;51.442;6.996;2022-12-29T10:52:48;99077.94;;;10.79;46.61
4570;BME280;2297;51.442;6.996;2022-12-29T10:55:18;99090.53;;;10.73;46.79
4570;BME280;2297;51.442;6.996;2022-12-29T10:57:46;99073.88;;;10.71;47.01
4570;BME280;2297;51.442;6.996;2022-12-29T11:00:16;99083.59;;;10.70;47.06
4570;BME280;2297;51.442;6.996;2022-12-29T11:03:07;99104.72;;;10.70;46.96
4570;BME280;2297;51.442;6.996;2022-12-29T11:05:43;99102.94;;;10.48;47.21
4570;BME280;2297;51.442;6.996;2022-12-29T11:08:16;99105.03;;;10.62;47.00
4570;BME280;2297;51.442;6.996;2022-12-29T11:10:45;99095.53;;;10.79;46.72
4570;BME280;2297;51.442;6.996;2022-12-29T11:13:15;99084.50;;;10.69;46.85
4570;BME280;2297;51.442;6.996;2022-12-29T11:15:44;99115.31;;;10.91;46.56
4570;BME280;2297;51.442;6.996;2022-12-29T11:18:22;99101.47;;;10.63;47.21
4570;BME280;2297;51.442;6.996;2022-12-29T11:20:51;99114.72;;;10.62;47.50
4570;BME280;2297;51.442;6.996;2022-12-29T11:23:28;99096.03;;;10.89;46.86
4570;BME280;2297;51.442;6.996;2022-12-29T11:26:22;99108.72;;;11.01;46.50
4570;BME280;2297;51.442;6.996;2022-12-29T11:29:08;99116.56;;;10.60;46.89
4570;BME280;2297;51.442;6.996;2022-12-29T11:31:40;99114.00;;;10.80;46.92
4570;BME280;2297;51.442;6.996;2022-12-29T11:34:07;99119.50;;;10.52;47.70
4570;BME280;2297;51.442;6.996;2022-12-29T11:36:35;99122.44;;;10.89;47.10
4570;BME280;2297;51.442;6.996;2022-12-29T11:39:03;99121.72;;;10.63;46.87
4570;BME280;2297;51.442;6.996;2022-12-29T11:41:31;99123.56;;;10.83;46.79
4570;BME280;2297;51.442;6.996;2022-12-29T11:43:59;99133.41;;;10.79;46.79
4570;BME280;2297;51.442;6.996;2022-12-29T11:46:29;99149.94;;;11.05;46.16
4570;BME280;2297;51.442;6.996;2022-12-29T11:48:56;99131.66;;;11.01;46.46
4570;BME280;2297;51.442;6.996;2022-12-29T11:51:27;99138.53;;;10.82;46.73
4570;BME280;2297;51.442;6.996;2022-12-29T11:53:57;99133.25;;;10.82;46.87
4570;BME280;2297;51.442;6.996;2022-12-29T11:56:34;99136.63;;;11.08;46.18
4570;BME280;2297;51.442;6.996;2022-12-29T11:59:24;99139.28;;;11.08;46.08
4570;BME280;2297;51.442;6.996;2022-12-29T12:01:51;99143.22;;;10.98;46.29
4570;BME280;2297;51.442;6.996;2022-12-29T12:04:20;99143.22;;;10.98;46.36
4570;BME280;2297;51.442;6.996;2022-12-29T12:06:55;99141.75;;;10.69;46.68
4570;BME280;2297;51.442;6.996;2022-12-29T12:09:28;99130.47;;;11.08;46.21
4570;BME280;2297;51.442;6.996;2022-12-29T12:11:59;99136.22;;;11.19;45.68
4570;BME280;2297;51.442;6.996;2022-12-29T12:14:30;99143.16;;;10.77;46.44
4570;BME280;2297;51.442;6.996;2022-12-29T12:17:02;99145.69;;;10.80;46.45
4570;BME280;2297;51.442;6.996;2022-12-29T12:19:32;99144.97;;;11.20;45.96
4570;BME280;2297;51.442;6.996;2022-12-29T12:22:03;99160.28;;;10.89;46.09
4570;BME280;2297;51.442;6.996;2022-12-29T12:24:38;99158.25;;;10.96;45.84
4570;BME280;2297;51.442;6.996;2022-12-29T12:27:13;99150.84;;;10.84;46.20
4570;BME280;2297;51.442;6.996;2022-12-29T12:29:50;99142.81;;;11.07;45.46
4570;BME280;2297;51.442;6.996;2022-12-29T12:32:39;99157.94;;;11.26;45.22
4570;BME280;2297;51.442;6.996;2022-12-29T12:35:11;99159.94;;;10.76;46.54
4570;BME280;2297;51.442;6.996;2022-12-29T12:38:00;99149.25;;;10.79;46.71
4570;BME280;2297;51.442;6.996;2022-12-29T12:40:44;99166.78;;;10.58;46.59
4570;BME280;2297;51.442;6.996;2022-12-29T12:43:28;99179.59;;;10.45;46.96
4570;BME280;2297;51.442;6.996;2022-12-29T12:46:10;99169.06;;;10.68;46.74
4570;BME280;2297;51.442;6.996;2022-12-29T12:51:55;99172.47;;;10.71;46.49
4570;BME280;2297;51.442;6.996;2022-12-29T12:54:35;99185.59;;;10.95;46.20
4570;BME280;2297;51.442;6.996;2022-12-29T12:57:12;99164.03;;;10.84;46.54
4570;BME280;2297;51.442;6.996;2022-12-29T12:59:50;99177.47;;;10.77;46.66
4570;BME280;2297;51.442;6.996;2022-12-29T13:02:33;99175.50;;;10.82;46.36
4570;BME280;2297;51.442;6.996;2022-12-29T13:05:21;99183.25;;;11.09;46.02
4570;BME280;2297;51.442;6.996;2022-12-29T13:08:10;99194.91;;;10.81;46.43
4570;BME280;2297;51.442;6.996;2022-12-29T13:10:42;99189.63;;;10.81;46.68
4570;BME280;2297;51.442;6.996;2022-12-29T13:13:47;99188.63;;;10.86;46.83
4570;BME280;2297;51.442;6.996;2022-12-29T13:16:25;99194.69;;;10.88;46.83
4570;BME280;2297;51.442;6.996;2022-12-29T13:18:55;99179.75;;;10.87;46.73
4570;BME280;2297;51.442;6.996;2022-12-29T13:21:34;99188.91;;;11.00;46.50
4570;BME280;2297;51.442;6.996;2022-12-29T13:24:12;99181.53;;;11.08;46.21
4570;BME280;2297;51.442;6.996;2022-12-29T13:26:44;99190.63;;;11.01;46.42
4570;BME280;2297;51.442;6.996;2022-12-29T13:29:17;99199.84;;;10.91;46.96
4570;BME280;2297;51.442;6.996;2022-12-29T13:31:53;99201.69;;;10.89;46.87
4570;BME280;2297;51.442;6.996;2022-12-29T13:34:32;99208.41;;;11.20;46.31
4570;BME280;2297;51.442;6.996;2022-12-29T13:37:04;99209.09;;;10.79;47.39
4570;BME280;2297;51.442;6.996;2022-12-29T13:39:37;99206.91;;;10.90;48.20
4570;BME280;2297;51.442;6.996;2022-12-29T13:42:06;99197.97;;;10.48;49.15
4570;BME280;2297;51.442;6.996;2022-12-29T13:44:35;99206.84;;;10.92;48.36